sensor_id;sensor_type;location;lat;lon;timestamp;temperature;humidity
75824;DHT22;64457;51.976;9.834;2023-05-29T00:01:06;18.30;84.20
75824;DHT22;64457;51.976;9.834;2023-05-29T00:03:36;18.20;84.70
75824;DHT22;64457;51.976;9.834;2023-05-29T00:06:04;18.20;85.10
75824;DHT22;64457;51.976;9.834;2023-05-29T00:08:33;18.20;86.10
75824;DHT22;64457;51.976;9.834;2023-05-29T00:11:01;18.20;86.30
75824;DHT22;64457;51.976;9.834;2023-05-29T00:13:31;18.20;85.70
75824;DHT22;64457;51.976;9.834;2023-05-29T00:16:00;18.30;85.30
75824;DHT22;64457;51.976;9.834;2023-05-29T00:18:30;18.30;85.50
75824;DHT22;64457;51.976;9.834;2023-05-29T00:20:58;18.30;85.70
75824;DHT22;64457;51.976;9.834;2023-05-29T00:23:27;18.20;85.00
75824;DHT22;64457;51.976;9.834;2023-05-29T00:25:57;18.10;86.50
75824;DHT22;64457;51.976;9.834;2023-05-29T00:28:24;18.00;86.60
75824;DHT22;64457;51.976;9.834;2023-05-29T00:30:53;18.00;86.70
75824;DHT22;64457;51.976;9.834;2023-05-29T00:33:20;17.90;86.80
75824;DHT22;64457;51.976;9.834;2023-05-29T00:35:49;18.00;86.80
75824;DHT22;64457;51.976;9.834;2023-05-29T00:38:17;18.10;86.00
75824;DHT22;64457;51.976;9.834;2023-05-29T00:40:45;18.10;86.60
75824;DHT22;64457;51.976;9.834;2023-05-29T00:43:15;18.00;86.80
75824;DHT22;64457;51.976;9.834;2023-05-29T00:45:43;18.00;86.30
75824;DHT22;64457;51.976;9.834;2023-05-29T00:48:11;17.90;86.20
75824;DHT22;64457;51.976;9.834;2023-05-29T00:50:40;17.80;87.20
75824;DHT22;64457;51.976;9.834;2023-05-29T00:53:09;17.80;86.90
75824;DHT22;64457;51.976;9.834;2023-05-29T00:55:39;17.70;87.30
75824;DHT22;64457;51.976;9.834;2023-05-29T00:58:13;17.60;87.80
75824;DHT22;64457;51.976;9.834;2023-05-29T01:00:41;17.60;87.60
75824;DHT22;64457;51.976;9.834;2023-05-29T01:03:10;17.60;87.50
75824;DHT22;64457;51.976;9.834;2023-05-29T01:05:45;17.60;88.00
75824;DHT22;64457;51.976;9.834;2023-05-29T01:08:15;17.60;87.80
75824;DHT22;64457;51.976;9.834;2023-05-29T01:10:42;17.60;87.80
75824;DHT22;64457;51.976;9.834;2023-05-29T01:13:17;17.40;88.70
75824;DHT22;64457;51.976;9.834;2023-05-29T01:15:54;17.30;88.80
75824;DHT22;64457;51.976;9.834;2023-05-29T01:18:35;17.30;88.90
75824;DHT22;64457;51.976;9.834;2023-05-29T01:21:12;17.30;89.70
75824;DHT22;64457;51.976;9.834;2023-05-29T01:23:56;17.20;89.50
75824;DHT22;64457;51.976;9.834;2023-05-29T01:26:41;17.20;89.40
75824;DHT22;64457;51.976;9.834;2023-05-29T01:29:15;17.10;89.80
75824;DHT22;64457;51.976;9.834;2023-05-29T01:31:47;17.10;90.00
75824;DHT22;64457;51.976;9.834;2023-05-29T01:34:16;17.10;89.60
75824;DHT22;64457;51.976;9.834;2023-05-29T01:36:43;16.90;90.00
75824;DHT22;64457;51.976;9.834;2023-05-29T01:39:18;16.90;90.00
75824;DHT22;64457;51.976;9.834;2023-05-29T01:41:54;16.80;90.30
75824;DHT22;64457;51.976;9.834;2023-05-29T01:44:23;16.70;90.30
75824;DHT22;64457;51.976;9.834;2023-05-29T01:46:52;16.60;90.40
75824;DHT22;64457;51.976;9.834;2023-05-29T01:49:20;16.70;90.50
75824;DHT22;64457;51.976;9.834;2023-05-29T01:51:52;16.60;90.40
75824;DHT22;64457;51.976;9.834;2023-05-29T01:54:21;16.60;90.60
75824;DHT22;64457;51.976;9.834;2023-05-29T01:56:51;16.60;90.40
75824;DHT22;64457;51.976;9.834;2023-05-29T01:59:21;16.50;90.50
75824;DHT22;64457;51.976;9.834;2023-05-29T02:01:49;16.40;90.70
75824;DHT22;64457;51.976;9.834;2023-05-29T02:04:17;16.30;91.00
75824;DHT22;64457;51.976;9.834;2023-05-29T02:06:45;16.30;90.80
75824;DHT22;64457;51.976;9.834;2023-05-29T02:09:13;16.30;91.10
75824;DHT22;64457;51.976;9.834;2023-05-29T02:11:43;16.20;91.10
75824;DHT22;64457;51.976;9.834;2023-05-29T02:14:13;16.10;91.30
75824;DHT22;64457;51.976;9.834;2023-05-29T02:16:40;16.10;91.40
75824;DHT22;64457;51.976;9.834;2023-05-29T02:19:10;16.10;91.30
75824;DHT22;64457;51.976;9.834;2023-05-29T02:21:38;16.00;91.40
75824;DHT22;64457;51.976;9.834;2023-05-29T02:24:06;15.90;91.80
75824;DHT22;64457;51.976;9.834;2023-05-29T02:26:35;15.90;91.60
75824;DHT22;64457;51.976;9.834;2023-05-29T02:29:03;16.00;91.40
75824;DHT22;64457;51.976;9.834;2023-05-29T02:31:36;16.00;91.30
75824;DHT22;64457;51.976;9.834;2023-05-29T02:34:04;16.00;91.30
75824;DHT22;64457;51.976;9.834;2023-05-29T02:36:33;15.90;91.50
75824;DHT22;64457;51.976;9.834;2023-05-29T02:39:04;16.00;91.20
75824;DHT22;64457;51.976;9.834;2023-05-29T02:41:32;15.90;91.20
75824;DHT22;64457;51.976;9.834;2023-05-29T02:44:01;15.90;91.20
75824;DHT22;64457;51.976;9.834;2023-05-29T02:46:29;15.70;91.50
75824;DHT22;64457;51.976;9.834;2023-05-29T02:48:59;15.80;91.20
75824;DHT22;64457;51.976;9.834;2023-05-29T02:51:26;15.80;91.30
75824;DHT22;64457;51.976;9.834;2023-05-29T02:53:58;15.60;91.10
75824;DHT22;64457;51.976;9.834;2023-05-29T02:56:25;15.60;91.10
75824;DHT22;64457;51.976;9.834;2023-05-29T02:58:54;15.50;91.40
75824;DHT22;64457;51.976;9.834;2023-05-29T03:01:21;15.40;91.40
75824;DHT22;64457;51.976;9.834;2023-05-29T03:03:49;15.40;91.30
75824;DHT22;64457;51.976;9.834;2023-05-29T03:06:20;15.30;91.50
75824;DHT22;64457;51.976;9.834;2023-05-29T03:08:48;15.30;91.60
75824;DHT22;64457;51.976;9.834;2023-05-29T03:11:17;15.40;91.50
75824;DHT22;64457;51.976;9.834;2023-05-29T03:13:48;15.40;91.40
75824;DHT22;64457;51.976;9.834;2023-05-29T03:16:15;15.40;91.20
75824;DHT22;64457;51.976;9.834;2023-05-29T03:18:43;15.40;91.00
75824;DHT22;64457;51.976;9.834;2023-05-29T03:21:11;15.40;90.90
75824;DHT22;64457;51.976;9.834;2023-05-29T03:23:43;15.40;90.70
75824;DHT22;64457;51.976;9.834;2023-05-29T03:26:10;15.30;90.80
75824;DHT22;64457;51.976;9.834;2023-05-29T03:28:38;15.20;91.20
75824;DHT22;64457;51.976;9.834;2023-05-29T03:31:07;15.20;91.20
75824;DHT22;64457;51.976;9.834;2023-05-29T03:33:36;15.20;91.00
75824;DHT22;64457;51.976;9.834;2023-05-29T03:36:04;15.30;90.80
75824;DHT22;64457;51.976;9.834;2023-05-29T03:38:33;15.10;91.00
75824;DHT22;64457;51.976;9.834;2023-05-29T03:41:03;15.10;91.10
75824;DHT22;64457;51.976;9.834;2023-05-29T03:43:31;15.10;91.00
75824;DHT22;64457;51.976;9.834;2023-05-29T03:45:58;15.10;91.00
75824;DHT22;64457;51.976;9.834;2023-05-29T03:48:27;15.10;91.10
75824;DHT22;64457;51.976;9.834;2023-05-29T03:50:54;15.10;91.00
75824;DHT22;64457;51.976;9.834;2023-05-29T03:53:22;15.10;90.40
75824;DHT22;64457;51.976;9.834;2023-05-29T03:55:52;15.10;90.60
75824;DHT22;64457;51.976;9.834;2023-05-29T03:58:21;15.10;90.60
75824;DHT22;64457;51.976;9.834;2023-05-29T04:00:49;15.10;90.60
75824;DHT22;64457;51.976;9.834;2023-05-29T04:03:18;15.20;90.70
75824;DHT22;64457;51.976;9.834;2023-05-29T04:05:47;15.20;90.30
75824;DHT22;64457;51.976;9.834;2023-05-29T04:08:16;15.10;90.40
75824;DHT22;64457;51.976;9.834;2023-05-29T04:10:44;15.10;90.30
75824;DHT22;64457;51.976;9.834;2023-05-29T04:13:12;15.20;90.30
75824;DHT22;64457;51.976;9.834;2023-05-29T04:15:42;15.20;90.20
75824;DHT22;64457;51.976;9.834;2023-05-29T04:18:09;15.10;90.20
75824;DHT22;64457;51.976;9.834;2023-05-29T04:20:37;14.90;90.50
75824;DHT22;64457;51.976;9.834;2023-05-29T04:23:06;14.80;90.70
75824;DHT22;64457;51.976;9.834;2023-05-29T04:25:34;14.80;90.70
75824;DHT22;64457;51.976;9.834;2023-05-29T04:28:02;14.90;90.60
75824;DHT22;64457;51.976;9.834;2023-05-29T04:30:30;14.90;90.40
75824;DHT22;64457;51.976;9.834;2023-05-29T04:33:01;14.90;90.60
75824;DHT22;64457;51.976;9.834;2023-05-29T04:35:28;15.00;90.40
75824;DHT22;64457;51.976;9.834;2023-05-29T04:37:56;15.20;90.10
75824;DHT22;64457;51.976;9.834;2023-05-29T04:40:25;15.20;90.20
75824;DHT22;64457;51.976;9.834;2023-05-29T04:42:54;15.00;90.40
75824;DHT22;64457;51.976;9.834;2023-05-29T04:45:27;15.10;90.20
75824;DHT22;64457;51.976;9.834;2023-05-29T04:47:56;15.20;90.00
75824;DHT22;64457;51.976;9.834;2023-05-29T04:50:26;15.10;89.90
75824;DHT22;64457;51.976;9.834;2023-05-29T04:52:56;15.10;90.40
75824;DHT22;64457;51.976;9.834;2023-05-29T04:55:24;15.20;90.00
75824;DHT22;64457;51.976;9.834;2023-05-29T04:57:51;15.20;90.00
75824;DHT22;64457;51.976;9.834;2023-05-29T05:00:20;15.20;89.60
75824;DHT22;64457;51.976;9.834;2023-05-29T05:02:49;15.20;89.40
75824;DHT22;64457;51.976;9.834;2023-05-29T05:05:17;15.10;89.70
75824;DHT22;64457;51.976;9.834;2023-05-29T05:07:47;15.10;89.70
75824;DHT22;64457;51.976;9.834;2023-05-29T05:10:17;15.30;89.30
75824;DHT22;64457;51.976;9.834;2023-05-29T05:12:45;15.40;88.90
75824;DHT22;64457;51.976;9.834;2023-05-29T05:15:12;15.50;88.20
75824;DHT22;64457;51.976;9.834;2023-05-29T05:17:40;15.40;88.70
75824;DHT22;64457;51.976;9.834;2023-05-29T05:20:09;15.50;88.50
75824;DHT22;64457;51.976;9.834;2023-05-29T05:22:38;15.70;88.50
75824;DHT22;64457;51.976;9.834;2023-05-29T05:25:08;15.70;87.60
75824;DHT22;64457;51.976;9.834;2023-05-29T05:27:36;15.90;87.50
75824;DHT22;64457;51.976;9.834;2023-05-29T05:30:04;16.10;86.50
75824;DHT22;64457;51.976;9.834;2023-05-29T05:32:33;16.20;85.90
75824;DHT22;64457;51.976;9.834;2023-05-29T05:35:03;16.30;85.80
75824;DHT22;64457;51.976;9.834;2023-05-29T05:37:31;16.30;85.80
75824;DHT22;64457;51.976;9.834;2023-05-29T05:39:59;16.80;85.10
75824;DHT22;64457;51.976;9.834;2023-05-29T05:42:28;18.30;81.50
75824;DHT22;64457;51.976;9.834;2023-05-29T05:44:56;20.40;75.10
75824;DHT22;64457;51.976;9.834;2023-05-29T05:47:24;21.90;70.40
75824;DHT22;64457;51.976;9.834;2023-05-29T05:49:53;23.00;67.00
75824;DHT22;64457;51.976;9.834;2023-05-29T05:52:21;23.50;63.90
75824;DHT22;64457;51.976;9.834;2023-05-29T05:54:48;22.90;64.40
75824;DHT22;64457;51.976;9.834;2023-05-29T05:57:17;22.10;65.70
75824;DHT22;64457;51.976;9.834;2023-05-29T05:59:47;21.30;67.30
75824;DHT22;64457;51.976;9.834;2023-05-29T06:02:15;21.70;67.70
75824;DHT22;64457;51.976;9.834;2023-05-29T06:04:44;23.10;65.50
75824;DHT22;64457;51.976;9.834;2023-05-29T06:07:12;24.50;61.40
75824;DHT22;64457;51.976;9.834;2023-05-29T06:09:43;25.80;58.90
75824;DHT22;64457;51.976;9.834;2023-05-29T06:12:11;27.10;56.50
75824;DHT22;64457;51.976;9.834;2023-05-29T06:14:38;27.50;55.20
75824;DHT22;64457;51.976;9.834;2023-05-29T06:17:09;28.00;53.70
75824;DHT22;64457;51.976;9.834;2023-05-29T06:19:36;28.30;52.90
75824;DHT22;64457;51.976;9.834;2023-05-29T06:22:07;28.10;52.40
75824;DHT22;64457;51.976;9.834;2023-05-29T06:24:35;28.10;52.40
75824;DHT22;64457;51.976;9.834;2023-05-29T06:27:03;28.20;51.50
75824;DHT22;64457;51.976;9.834;2023-05-29T06:29:32;28.30;51.70
75824;DHT22;64457;51.976;9.834;2023-05-29T06:32:01;27.90;52.00
75824;DHT22;64457;51.976;9.834;2023-05-29T06:34:30;27.50;52.30
75824;DHT22;64457;51.976;9.834;2023-05-29T06:36:59;27.90;52.80
75824;DHT22;64457;51.976;9.834;2023-05-29T06:39:27;28.70;51.80
75824;DHT22;64457;51.976;9.834;2023-05-29T06:41:55;29.40;49.90
75824;DHT22;64457;51.976;9.834;2023-05-29T06:44:23;30.00;49.20
75824;DHT22;64457;51.976;9.834;2023-05-29T06:46:52;30.50;47.60
75824;DHT22;64457;51.976;9.834;2023-05-29T06:49:19;30.70;47.30
75824;DHT22;64457;51.976;9.834;2023-05-29T06:51:49;31.00;46.50
75824;DHT22;64457;51.976;9.834;2023-05-29T06:54:16;30.90;46.30
75824;DHT22;64457;51.976;9.834;2023-05-29T06:56:45;30.90;46.60
75824;DHT22;64457;51.976;9.834;2023-05-29T06:59:13;31.30;46.70
75824;DHT22;64457;51.976;9.834;2023-05-29T07:01:41;31.30;46.00
75824;DHT22;64457;51.976;9.834;2023-05-29T07:04:08;31.00;46.30
75824;DHT22;64457;51.976;9.834;2023-05-29T07:06:36;30.50;46.70
75824;DHT22;64457;51.976;9.834;2023-05-29T07:09:05;30.50;46.90
75824;DHT22;64457;51.976;9.834;2023-05-29T07:11:33;30.10;47.00
75824;DHT22;64457;51.976;9.834;2023-05-29T07:14:03;29.60;48.10
75824;DHT22;64457;51.976;9.834;2023-05-29T07:16:32;29.60;48.10
75824;DHT22;64457;51.976;9.834;2023-05-29T07:19:00;29.40;48.30
75824;DHT22;64457;51.976;9.834;2023-05-29T07:21:28;29.30;49.00
75824;DHT22;64457;51.976;9.834;2023-05-29T07:23:57;29.30;48.70
75824;DHT22;64457;51.976;9.834;2023-05-29T07:26:26;29.20;49.50
75824;DHT22;64457;51.976;9.834;2023-05-29T07:28:58;29.40;48.90
75824;DHT22;64457;51.976;9.834;2023-05-29T07:31:26;29.30;48.90
75824;DHT22;64457;51.976;9.834;2023-05-29T07:33:54;29.50;48.10
75824;DHT22;64457;51.976;9.834;2023-05-29T07:36:21;29.30;48.70
75824;DHT22;64457;51.976;9.834;2023-05-29T07:38:49;28.00;50.10
75824;DHT22;64457;51.976;9.834;2023-05-29T07:41:19;27.80;50.70
75824;DHT22;64457;51.976;9.834;2023-05-29T07:43:49;27.70;51.40
75824;DHT22;64457;51.976;9.834;2023-05-29T07:46:21;28.40;50.50
75824;DHT22;64457;51.976;9.834;2023-05-29T07:48:48;28.70;50.00
75824;DHT22;64457;51.976;9.834;2023-05-29T07:51:17;29.20;49.10
75824;DHT22;64457;51.976;9.834;2023-05-29T07:53:45;29.30;49.80
75824;DHT22;64457;51.976;9.834;2023-05-29T07:56:12;29.20;49.30
75824;DHT22;64457;51.976;9.834;2023-05-29T07:58:42;29.30;49.10
75824;DHT22;64457;51.976;9.834;2023-05-29T08:01:11;29.40;48.70
75824;DHT22;64457;51.976;9.834;2023-05-29T08:03:41;29.70;48.60
75824;DHT22;64457;51.976;9.834;2023-05-29T08:06:10;29.70;48.30
75824;DHT22;64457;51.976;9.834;2023-05-29T08:08:39;29.70;48.30
75824;DHT22;64457;51.976;9.834;2023-05-29T08:11:08;29.90;48.30
75824;DHT22;64457;51.976;9.834;2023-05-29T08:13:37;29.20;48.80
75824;DHT22;64457;51.976;9.834;2023-05-29T08:16:06;28.80;50.20
75824;DHT22;64457;51.976;9.834;2023-05-29T08:18:35;29.20;49.90
75824;DHT22;64457;51.976;9.834;2023-05-29T08:21:04;30.10;48.80
75824;DHT22;64457;51.976;9.834;2023-05-29T08:23:32;31.10;48.50
75824;DHT22;64457;51.976;9.834;2023-05-29T08:26:00;30.90;46.80
75824;DHT22;64457;51.976;9.834;2023-05-29T08:28:29;30.10;47.90
75824;DHT22;64457;51.976;9.834;2023-05-29T08:30:57;30.00;48.00
75824;DHT22;64457;51.976;9.834;2023-05-29T08:33:25;30.10;48.40
75824;DHT22;64457;51.976;9.834;2023-05-29T08:35:57;30.90;47.80
75824;DHT22;64457;51.976;9.834;2023-05-29T08:38:25;31.00;47.50
75824;DHT22;64457;51.976;9.834;2023-05-29T08:40:54;31.50;46.70
75824;DHT22;64457;51.976;9.834;2023-05-29T08:43:26;32.50;46.20
75824;DHT22;64457;51.976;9.834;2023-05-29T08:46:00;31.70;45.70
75824;DHT22;64457;51.976;9.834;2023-05-29T08:48:30;31.30;46.50
75824;DHT22;64457;51.976;9.834;2023-05-29T08:51:02;31.30;45.80
75824;DHT22;64457;51.976;9.834;2023-05-29T08:53:31;31.20;46.40
75824;DHT22;64457;51.976;9.834;2023-05-29T08:56:00;31.40;46.00
75824;DHT22;64457;51.976;9.834;2023-05-29T08:58:28;31.70;45.60
75824;DHT22;64457;51.976;9.834;2023-05-29T09:00:59;31.00;45.50
75824;DHT22;64457;51.976;9.834;2023-05-29T09:03:28;30.20;47.40
75824;DHT22;64457;51.976;9.834;2023-05-29T09:06:00;29.90;47.40
75824;DHT22;64457;51.976;9.834;2023-05-29T09:08:29;29.50;47.80
75824;DHT22;64457;51.976;9.834;2023-05-29T09:10:58;29.40;48.60
75824;DHT22;64457;51.976;9.834;2023-05-29T09:13:27;28.90;49.60
75824;DHT22;64457;51.976;9.834;2023-05-29T09:16:00;28.40;50.00
75824;DHT22;64457;51.976;9.834;2023-05-29T09:18:29;28.20;50.80
75824;DHT22;64457;51.976;9.834;2023-05-29T09:20:59;27.80;52.00
75824;DHT22;64457;51.976;9.834;2023-05-29T09:23:34;27.10;51.80
75824;DHT22;64457;51.976;9.834;2023-05-29T09:26:03;26.00;54.00
75824;DHT22;64457;51.976;9.834;2023-05-29T09:28:30;25.50;55.40
75824;DHT22;64457;51.976;9.834;2023-05-29T09:30:59;25.10;55.60
75824;DHT22;64457;51.976;9.834;2023-05-29T09:33:27;24.40;56.80
75824;DHT22;64457;51.976;9.834;2023-05-29T09:35:54;24.10;57.60
75824;DHT22;64457;51.976;9.834;2023-05-29T09:38:25;24.00;58.90
75824;DHT22;64457;51.976;9.834;2023-05-29T09:40:52;23.80;58.10
75824;DHT22;64457;51.976;9.834;2023-05-29T09:43:24;23.60;58.70
75824;DHT22;64457;51.976;9.834;2023-05-29T09:45:52;23.40;60.70
75824;DHT22;64457;51.976;9.834;2023-05-29T09:48:23;23.70;59.90
75824;DHT22;64457;51.976;9.834;2023-05-29T09:50:51;23.50;58.60
75824;DHT22;64457;51.976;9.834;2023-05-29T09:53:22;23.20;59.50
75824;DHT22;64457;51.976;9.834;2023-05-29T09:55:54;23.30;60.30
75824;DHT22;64457;51.976;9.834;2023-05-29T09:58:22;23.50;59.50
75824;DHT22;64457;51.976;9.834;2023-05-29T10:00:52;23.40;59.10
75824;DHT22;64457;51.976;9.834;2023-05-29T10:03:20;23.30;59.70
75824;DHT22;64457;51.976;9.834;2023-05-29T10:05:50;23.30;59.50
75824;DHT22;64457;51.976;9.834;2023-05-29T10:08:20;23.10;59.30
75824;DHT22;64457;51.976;9.834;2023-05-29T10:10:59;23.40;60.80
75824;DHT22;64457;51.976;9.834;2023-05-29T10:13:38;23.70;59.60
75824;DHT22;64457;51.976;9.834;2023-05-29T10:16:10;23.60;59.30
75824;DHT22;64457;51.976;9.834;2023-05-29T10:18:43;23.60;59.90
75824;DHT22;64457;51.976;9.834;2023-05-29T10:21:12;23.60;59.60
75824;DHT22;64457;51.976;9.834;2023-05-29T10:23:43;23.30;59.00
75824;DHT22;64457;51.976;9.834;2023-05-29T10:26:19;23.30;60.30
75824;DHT22;64457;51.976;9.834;2023-05-29T10:28:54;23.50;60.30
75824;DHT22;64457;51.976;9.834;2023-05-29T10:31:29;23.40;61.00
75824;DHT22;64457;51.976;9.834;2023-05-29T10:34:07;23.40;60.90
75824;DHT22;64457;51.976;9.834;2023-05-29T10:36:56;23.50;60.70
75824;DHT22;64457;51.976;9.834;2023-05-29T10:39:30;23.60;60.00
75824;DHT22;64457;51.976;9.834;2023-05-29T10:42:01;23.70;59.80
75824;DHT22;64457;51.976;9.834;2023-05-29T10:44:41;23.90;61.00
75824;DHT22;64457;51.976;9.834;2023-05-29T10:47:09;23.70;59.20
75824;DHT22;64457;51.976;9.834;2023-05-29T10:49:38;23.70;60.00
75824;DHT22;64457;51.976;9.834;2023-05-29T10:52:06;23.30;59.50
75824;DHT22;64457;51.976;9.834;2023-05-29T10:54:50;23.00;60.70
75824;DHT22;64457;51.976;9.834;2023-05-29T10:57:25;23.40;61.20
75824;DHT22;64457;51.976;9.834;2023-05-29T11:00:00;23.80;60.00
75824;DHT22;64457;51.976;9.834;2023-05-29T11:02:40;23.80;59.40
75824;DHT22;64457;51.976;9.834;2023-05-29T11:05:22;23.50;59.40
75824;DHT22;64457;51.976;9.834;2023-05-29T11:07:53;23.30;60.50
75824;DHT22;64457;51.976;9.834;2023-05-29T11:10:41;22.90;60.70
75824;DHT22;64457;51.976;9.834;2023-05-29T11:13:32;22.70;61.40
75824;DHT22;64457;51.976;9.834;2023-05-29T11:16:20;23.00;61.50
75824;DHT22;64457;51.976;9.834;2023-05-29T11:19:07;23.00;60.90
75824;DHT22;64457;51.976;9.834;2023-05-29T11:21:53;23.10;61.70
75824;DHT22;64457;51.976;9.834;2023-05-29T11:24:27;23.30;61.10
75824;DHT22;64457;51.976;9.834;2023-05-29T11:26:56;23.40;60.90
75824;DHT22;64457;51.976;9.834;2023-05-29T11:29:31;23.40;60.00
75824;DHT22;64457;51.976;9.834;2023-05-29T11:32:02;23.50;59.90
75824;DHT22;64457;51.976;9.834;2023-05-29T11:34:32;23.90;59.70
75824;DHT22;64457;51.976;9.834;2023-05-29T11:37:02;24.10;59.10
75824;DHT22;64457;51.976;9.834;2023-05-29T11:39:30;23.90;58.60
75824;DHT22;64457;51.976;9.834;2023-05-29T11:42:00;24.10;58.30
75824;DHT22;64457;51.976;9.834;2023-05-29T11:44:28;23.80;58.60
75824;DHT22;64457;51.976;9.834;2023-05-29T11:47:01;23.70;58.80
75824;DHT22;64457;51.976;9.834;2023-05-29T11:49:29;23.80;59.10
75824;DHT22;64457;51.976;9.834;2023-05-29T11:52:08;23.80;58.80
75824;DHT22;64457;51.976;9.834;2023-05-29T11:54:37;23.50;57.80
75824;DHT22;64457;51.976;9.834;2023-05-29T11:57:05;23.40;57.60
75824;DHT22;64457;51.976;9.834;2023-05-29T11:59:33;23.50;58.30
75824;DHT22;64457;51.976;9.834;2023-05-29T12:02:04;23.60;57.40
75824;DHT22;64457;51.976;9.834;2023-05-29T12:04:32;23.90;57.00
75824;DHT22;64457;51.976;9.834;2023-05-29T12:06:59;24.00;57.20
75824;DHT22;64457;51.976;9.834;2023-05-29T12:09:28;24.10;57.90
75824;DHT22;64457;51.976;9.834;2023-05-29T12:12:02;24.10;57.20
75824;DHT22;64457;51.976;9.834;2023-05-29T12:14:30;23.90;56.70
75824;DHT22;64457;51.976;9.834;2023-05-29T12:16:58;23.90;57.70
75824;DHT22;64457;51.976;9.834;2023-05-29T12:19:29;24.10;57.20
75824;DHT22;64457;51.976;9.834;2023-05-29T12:21:57;23.90;57.00
75824;DHT22;64457;51.976;9.834;2023-05-29T12:24:25;24.00;56.90
75824;DHT22;64457;51.976;9.834;2023-05-29T12:26:56;24.00;58.00
75824;DHT22;64457;51.976;9.834;2023-05-29T12:29:30;23.60;56.10
75824;DHT22;64457;51.976;9.834;2023-05-29T12:31:58;23.20;56.60
75824;DHT22;64457;51.976;9.834;2023-05-29T12:34:26;23.30;58.10
75824;DHT22;64457;51.976;9.834;2023-05-29T12:37:05;23.30;58.00
75824;DHT22;64457;51.976;9.834;2023-05-29T12:39:35;23.60;57.90
75824;DHT22;64457;51.976;9.834;2023-05-29T12:42:04;23.80;56.90
75824;DHT22;64457;51.976;9.834;2023-05-29T12:44:33;23.90;57.80
75824;DHT22;64457;51.976;9.834;2023-05-29T12:47:01;23.80;56.80
75824;DHT22;64457;51.976;9.834;2023-05-29T12:49:29;23.70;56.20
75824;DHT22;64457;51.976;9.834;2023-05-29T12:52:09;23.60;57.00
75824;DHT22;64457;51.976;9.834;2023-05-29T12:54:37;23.80;56.10
75824;DHT22;64457;51.976;9.834;2023-05-29T12:57:06;24.10;56.40
75824;DHT22;64457;51.976;9.834;2023-05-29T12:59:34;24.30;56.30
75824;DHT22;64457;51.976;9.834;2023-05-29T13:02:02;24.00;56.40
75824;DHT22;64457;51.976;9.834;2023-05-29T13:04:32;23.90;56.70
75824;DHT22;64457;51.976;9.834;2023-05-29T13:07:00;23.90;55.70
75824;DHT22;64457;51.976;9.834;2023-05-29T13:09:30;23.80;56.80
75824;DHT22;64457;51.976;9.834;2023-05-29T13:11:58;24.20;56.60
75824;DHT22;64457;51.976;9.834;2023-05-29T13:14:26;24.20;56.00
75824;DHT22;64457;51.976;9.834;2023-05-29T13:16:54;24.20;56.50
75824;DHT22;64457;51.976;9.834;2023-05-29T13:19:24;23.90;56.00
75824;DHT22;64457;51.976;9.834;2023-05-29T13:21:52;23.90;56.70
75824;DHT22;64457;51.976;9.834;2023-05-29T13:24:20;23.90;56.50
75824;DHT22;64457;51.976;9.834;2023-05-29T13:26:49;24.00;55.70
75824;DHT22;64457;51.976;9.834;2023-05-29T13:29:17;23.80;55.80
75824;DHT22;64457;51.976;9.834;2023-05-29T13:31:48;24.10;56.10
75824;DHT22;64457;51.976;9.834;2023-05-29T13:34:17;24.40;56.40
75824;DHT22;64457;51.976;9.834;2023-05-29T13:36:46;24.70;56.40
75824;DHT22;64457;51.976;9.834;2023-05-29T13:39:13;24.80;55.60
75824;DHT22;64457;51.976;9.834;2023-05-29T13:41:41;24.70;54.80
75824;DHT22;64457;51.976;9.834;2023-05-29T13:44:11;24.70;54.40
75824;DHT22;64457;51.976;9.834;2023-05-29T13:46:38;24.70;54.20
75824;DHT22;64457;51.976;9.834;2023-05-29T13:49:08;24.70;55.50
75824;DHT22;64457;51.976;9.834;2023-05-29T13:51:36;24.50;55.00
75824;DHT22;64457;51.976;9.834;2023-05-29T13:54:07;24.10;55.70
75824;DHT22;64457;51.976;9.834;2023-05-29T13:56:36;24.00;55.60
75824;DHT22;64457;51.976;9.834;2023-05-29T13:59:05;23.90;55.90
75824;DHT22;64457;51.976;9.834;2023-05-29T14:01:35;24.00;55.10
75824;DHT22;64457;51.976;9.834;2023-05-29T14:04:03;24.00;54.60
75824;DHT22;64457;51.976;9.834;2023-05-29T14:06:31;24.20;54.90
75824;DHT22;64457;51.976;9.834;2023-05-29T14:08:59;24.30;54.80
75824;DHT22;64457;51.976;9.834;2023-05-29T14:11:28;24.40;55.60
75824;DHT22;64457;51.976;9.834;2023-05-29T14:13:56;24.40;54.80
75824;DHT22;64457;51.976;9.834;2023-05-29T14:16:24;24.00;54.90
75824;DHT22;64457;51.976;9.834;2023-05-29T14:18:54;23.80;55.10
75824;DHT22;64457;51.976;9.834;2023-05-29T14:21:22;23.90;55.70
75824;DHT22;64457;51.976;9.834;2023-05-29T14:23:50;24.00;55.20
75824;DHT22;64457;51.976;9.834;2023-05-29T14:26:18;23.80;54.90
75824;DHT22;64457;51.976;9.834;2023-05-29T14:28:46;24.00;55.10
75824;DHT22;64457;51.976;9.834;2023-05-29T14:31:14;24.20;54.20
75824;DHT22;64457;51.976;9.834;2023-05-29T14:33:43;24.20;53.80
75824;DHT22;64457;51.976;9.834;2023-05-29T14:36:13;24.20;54.10
75824;DHT22;64457;51.976;9.834;2023-05-29T14:38:40;24.20;53.40
75824;DHT22;64457;51.976;9.834;2023-05-29T14:41:12;23.90;53.90
75824;DHT22;64457;51.976;9.834;2023-05-29T14:43:41;23.60;54.00
75824;DHT22;64457;51.976;9.834;2023-05-29T14:46:11;23.50;55.00
75824;DHT22;64457;51.976;9.834;2023-05-29T14:48:39;23.70;53.40
75824;DHT22;64457;51.976;9.834;2023-05-29T14:51:09;23.70;54.30
75824;DHT22;64457;51.976;9.834;2023-05-29T14:53:39;23.60;53.80
75824;DHT22;64457;51.976;9.834;2023-05-29T14:56:06;23.80;54.30
75824;DHT22;64457;51.976;9.834;2023-05-29T14:58:34;23.80;53.30
75824;DHT22;64457;51.976;9.834;2023-05-29T15:01:03;23.50;53.00
75824;DHT22;64457;51.976;9.834;2023-05-29T15:03:31;23.50;54.30
75824;DHT22;64457;51.976;9.834;2023-05-29T15:06:01;23.30;54.20
75824;DHT22;64457;51.976;9.834;2023-05-29T15:08:29;23.60;54.40
75824;DHT22;64457;51.976;9.834;2023-05-29T15:11:02;23.60;53.80
75824;DHT22;64457;51.976;9.834;2023-05-29T15:13:30;23.60;53.20
75824;DHT22;64457;51.976;9.834;2023-05-29T15:15:58;23.40;52.60
75824;DHT22;64457;51.976;9.834;2023-05-29T15:18:28;23.20;52.80
75824;DHT22;64457;51.976;9.834;2023-05-29T15:20:56;23.40;52.50
75824;DHT22;64457;51.976;9.834;2023-05-29T15:23:25;23.50;52.10
75824;DHT22;64457;51.976;9.834;2023-05-29T15:25:52;23.50;51.80
75824;DHT22;64457;51.976;9.834;2023-05-29T15:28:22;23.60;52.30
75824;DHT22;64457;51.976;9.834;2023-05-29T15:30:53;23.60;51.50
75824;DHT22;64457;51.976;9.834;2023-05-29T15:33:22;23.80;52.10
75824;DHT22;64457;51.976;9.834;2023-05-29T15:35:49;23.80;51.10
75824;DHT22;64457;51.976;9.834;2023-05-29T15:38:17;23.80;51.40
75824;DHT22;64457;51.976;9.834;2023-05-29T15:40:45;23.60;51.10
75824;DHT22;64457;51.976;9.834;2023-05-29T15:43:13;23.80;51.50
75824;DHT22;64457;51.976;9.834;2023-05-29T15:45:45;24.00;51.40